sensor_id;sensor_type;location;lat;lon;timestamp;pressure;altitude;pressure_sealevel;temperature
24586;BMP280;12743;52.262;6.172;2022-08-21T00:01:55;101281.81;;;18.09
24586;BMP280;12743;52.262;6.172;2022-08-21T00:04:21;101328.78;;;18.67
24586;BMP280;12743;52.262;6.172;2022-08-21T00:06:46;101293.28;;;18.16
24586;BMP280;12743;52.262;6.172;2022-08-21T00:09:12;101342.97;;;18.42
24586;BMP280;12743;52.262;6.172;2022-08-21T00:11:38;101361.38;;;18.57
24586;BMP280;12743;52.262;6.172;2022-08-21T00:14:06;101353.31;;;18.50
24586;BMP280;12743;52.262;6.172;2022-08-21T00:16:32;101315.41;;;18.24
24586;BMP280;12743;52.262;6.172;2022-08-21T00:18:57;101354.66;;;18.34
24586;BMP280;12743;52.262;6.172;2022-08-21T00:21:23;101329.72;;;18.16
24586;BMP280;12743;52.262;6.172;2022-08-21T00:23:50;101345.16;;;18.03
24586;BMP280;12743;52.262;6.172;2022-08-21T00:26:15;101336.81;;;17.45
24586;BMP280;12743;52.262;6.172;2022-08-21T00:28:41;101292.56;;;17.30
24586;BMP280;12743;52.262;6.172;2022-08-21T00:31:06;101361.66;;;17.60
24586;BMP280;12743;52.262;6.172;2022-08-21T00:33:32;101283.06;;;17.29
24586;BMP280;12743;52.262;6.172;2022-08-21T00:35:58;101337.63;;;17.75
24586;BMP280;12743;52.262;6.172;2022-08-21T00:38:23;101327.78;;;17.79
24586;BMP280;12743;52.262;6.172;2022-08-21T00:40:52;101305.81;;;17.56
24586;BMP280;12743;52.262;6.172;2022-08-21T00:43:25;101312.63;;;17.54
24586;BMP280;12743;52.262;6.172;2022-08-21T00:45:53;101361.75;;;17.93
24586;BMP280;12743;52.262;6.172;2022-08-21T00:48:19;101295.63;;;17.58
24586;BMP280;12743;52.262;6.172;2022-08-21T00:51:15;101339.34;;;17.38
24586;BMP280;12743;52.262;6.172;2022-08-21T00:53:44;101299.50;;;16.89
24586;BMP280;12743;52.262;6.172;2022-08-21T00:56:11;101344.38;;;17.47
24586;BMP280;12743;52.262;6.172;2022-08-21T00:58:39;101360.47;;;17.57
24586;BMP280;12743;52.262;6.172;2022-08-21T01:01:06;101312.09;;;17.19
24586;BMP280;12743;52.262;6.172;2022-08-21T01:03:33;101321.56;;;17.42
24586;BMP280;12743;52.262;6.172;2022-08-21T01:05:58;101347.50;;;17.52
24586;BMP280;12743;52.262;6.172;2022-08-21T01:08:24;101293.16;;;17.20
24586;BMP280;12743;52.262;6.172;2022-08-21T01:10:51;101329.72;;;17.56
24586;BMP280;12743;52.262;6.172;2022-08-21T01:13:19;101264.69;;;16.94
24586;BMP280;12743;52.262;6.172;2022-08-21T01:15:46;101328.16;;;17.26
24586;BMP280;12743;52.262;6.172;2022-08-21T01:18:15;101344.59;;;17.35
24586;BMP280;12743;52.262;6.172;2022-08-21T01:23:31;101316.31;;;17.23
24586;BMP280;12743;52.262;6.172;2022-08-21T01:25:56;101309.94;;;17.02
24586;BMP280;12743;52.262;6.172;2022-08-21T01:28:22;101286.38;;;16.96
24586;BMP280;12743;52.262;6.172;2022-08-21T01:30:48;101327.84;;;17.08
24586;BMP280;12743;52.262;6.172;2022-08-21T01:33:18;101358.94;;;17.30
24586;BMP280;12743;52.262;6.172;2022-08-21T01:35:43;101308.75;;;16.99
24586;BMP280;12743;52.262;6.172;2022-08-21T01:38:09;101311.88;;;17.05
24586;BMP280;12743;52.262;6.172;2022-08-21T01:40:34;101307.22;;;16.98
24586;BMP280;12743;52.262;6.172;2022-08-21T01:43:00;101360.53;;;17.35
24586;BMP280;12743;52.262;6.172;2022-08-21T01:45:26;101313.47;;;17.09
24586;BMP280;12743;52.262;6.172;2022-08-21T01:47:51;101315.69;;;17.07
24586;BMP280;12743;52.262;6.172;2022-08-21T01:50:18;101321.66;;;17.00
24586;BMP280;12743;52.262;6.172;2022-08-21T01:52:44;101287.41;;;16.92
24586;BMP280;12743;52.262;6.172;2022-08-21T01:55:11;101346.06;;;17.32
24586;BMP280;12743;52.262;6.172;2022-08-21T01:57:37;101258.28;;;16.73
24586;BMP280;12743;52.262;6.172;2022-08-21T02:00:08;101340.66;;;17.25
24586;BMP280;12743;52.262;6.172;2022-08-21T02:02:37;101308.75;;;16.99
24586;BMP280;12743;52.262;6.172;2022-08-21T02:05:04;101334.25;;;17.07
24586;BMP280;12743;52.262;6.172;2022-08-21T02:07:41;101316.94;;;16.90
24586;BMP280;12743;52.262;6.172;2022-08-21T02:10:09;101312.16;;;16.77
24586;BMP280;12743;52.262;6.172;2022-08-21T02:12:35;101313.88;;;16.88
24586;BMP280;12743;52.262;6.172;2022-08-21T02:15:02;101302.63;;;16.95
24586;BMP280;12743;52.262;6.172;2022-08-21T02:17:46;101311.22;;;16.88
24586;BMP280;12743;52.262;6.172;2022-08-21T02:20:25;101329.94;;;16.95
24586;BMP280;12743;52.262;6.172;2022-08-21T02:22:51;101323.41;;;16.70
24586;BMP280;12743;52.262;6.172;2022-08-21T02:25:17;101261.63;;;16.28
24586;BMP280;12743;52.262;6.172;2022-08-21T02:27:45;101324.75;;;16.61
24586;BMP280;12743;52.262;6.172;2022-08-21T02:30:22;101333.97;;;16.67
24586;BMP280;12743;52.262;6.172;2022-08-21T02:32:48;101292.81;;;16.15
24586;BMP280;12743;52.262;6.172;2022-08-21T02:35:15;101330.84;;;16.23
24586;BMP280;12743;52.262;6.172;2022-08-21T02:37:49;101305.88;;;16.43
24586;BMP280;12743;52.262;6.172;2022-08-21T02:40:16;101325.31;;;16.70
24586;BMP280;12743;52.262;6.172;2022-08-21T02:42:42;101306.56;;;16.82
24586;BMP280;12743;52.262;6.172;2022-08-21T02:45:09;101280.91;;;16.67
24586;BMP280;12743;52.262;6.172;2022-08-21T02:47:35;101300.81;;;16.76
24586;BMP280;12743;52.262;6.172;2022-08-21T02:50:01;101267.41;;;16.53
24586;BMP280;12743;52.262;6.172;2022-08-21T02:52:26;101261.59;;;16.47
24586;BMP280;12743;52.262;6.172;2022-08-21T02:54:51;101292.72;;;16.69
24586;BMP280;12743;52.262;6.172;2022-08-21T02:57:17;101255.09;;;16.22
24586;BMP280;12743;52.262;6.172;2022-08-21T02:59:42;101253.22;;;16.23
24586;BMP280;12743;52.262;6.172;2022-08-21T03:02:07;101238.28;;;16.14
24586;BMP280;12743;52.262;6.172;2022-08-21T03:04:33;101270.84;;;16.34
24586;BMP280;12743;52.262;6.172;2022-08-21T03:06:58;101144.28;;;15.32
24586;BMP280;12743;52.262;6.172;2022-08-21T03:09:24;101297.97;;;16.47
24586;BMP280;12743;52.262;6.172;2022-08-21T03:11:50;101141.00;;;15.54
24586;BMP280;12743;52.262;6.172;2022-08-21T03:14:17;101108.47;;;14.84
24586;BMP280;12743;52.262;6.172;2022-08-21T03:16:43;101214.72;;;15.71
24586;BMP280;12743;52.262;6.172;2022-08-21T03:19:09;101232.41;;;15.67
24586;BMP280;12743;52.262;6.172;2022-08-21T03:21:34;101298.88;;;16.16
24586;BMP280;12743;52.262;6.172;2022-08-21T03:23:59;101259.53;;;15.80
24586;BMP280;12743;52.262;6.172;2022-08-21T03:26:25;101260.03;;;15.66
24586;BMP280;12743;52.262;6.172;2022-08-21T03:28:50;101299.22;;;15.95
24586;BMP280;12743;52.262;6.172;2022-08-21T03:31:16;101262.50;;;15.59
24586;BMP280;12743;52.262;6.172;2022-08-21T03:33:43;101268.97;;;15.77
24586;BMP280;12743;52.262;6.172;2022-08-21T03:36:09;101226.13;;;15.21
24586;BMP280;12743;52.262;6.172;2022-08-21T03:38:36;101302.78;;;15.68
24586;BMP280;12743;52.262;6.172;2022-08-21T03:41:02;101274.06;;;15.51
24586;BMP280;12743;52.262;6.172;2022-08-21T03:43:28;101273.75;;;15.06
24586;BMP280;12743;52.262;6.172;2022-08-21T03:45:54;101252.06;;;15.16
24586;BMP280;12743;52.262;6.172;2022-08-21T03:48:19;101316.63;;;15.62
24586;BMP280;12743;52.262;6.172;2022-08-21T03:50:45;101299.84;;;15.23
24586;BMP280;12743;52.262;6.172;2022-08-21T03:53:13;101166.53;;;14.49
24586;BMP280;12743;52.262;6.172;2022-08-21T03:55:39;101293.03;;;15.22
24586;BMP280;12743;52.262;6.172;2022-08-21T03:58:05;101207.06;;;14.69
24586;BMP280;12743;52.262;6.172;2022-08-21T04:00:31;101280.41;;;15.15
24586;BMP280;12743;52.262;6.172;2022-08-21T04:02:56;101299.75;;;15.35
24586;BMP280;12743;52.262;6.172;2022-08-21T04:05:22;101242.47;;;14.96
24586;BMP280;12743;52.262;6.172;2022-08-21T04:07:55;101313.53;;;15.25
24586;BMP280;12743;52.262;6.172;2022-08-21T04:10:20;101260.75;;;15.01
24586;BMP280;12743;52.262;6.172;2022-08-21T04:12:46;101282.81;;;15.05
24586;BMP280;12743;52.262;6.172;2022-08-21T04:15:11;101267.25;;;14.88
24586;BMP280;12743;52.262;6.172;2022-08-21T04:17:38;101270.75;;;14.92
24586;BMP280;12743;52.262;6.172;2022-08-21T04:20:04;101286.88;;;14.87
24586;BMP280;12743;52.262;6.172;2022-08-21T04:22:29;101247.31;;;14.63
24586;BMP280;12743;52.262;6.172;2022-08-21T04:24:54;101263.34;;;14.82
24586;BMP280;12743;52.262;6.172;2022-08-21T04:27:20;101277.97;;;14.79
24586;BMP280;12743;52.262;6.172;2022-08-21T04:29:45;101297.81;;;15.01
24586;BMP280;12743;52.262;6.172;2022-08-21T04:32:10;101242.31;;;14.89
24586;BMP280;12743;52.262;6.172;2022-08-21T04:34:36;101268.88;;;15.23
24586;BMP280;12743;52.262;6.172;2022-08-21T04:37:01;101219.91;;;14.98
24586;BMP280;12743;52.262;6.172;2022-08-21T04:39:27;101251.66;;;14.98
24586;BMP280;12743;52.262;6.172;2022-08-21T04:41:52;101246.00;;;15.00
24586;BMP280;12743;52.262;6.172;2022-08-21T04:44:17;101289.75;;;15.28
24586;BMP280;12743;52.262;6.172;2022-08-21T04:46:43;101283.31;;;15.10
24586;BMP280;12743;52.262;6.172;2022-08-21T04:49:08;101241.28;;;14.62
24586;BMP280;12743;52.262;6.172;2022-08-21T04:51:35;101231.53;;;14.66
24586;BMP280;12743;52.262;6.172;2022-08-21T04:54:03;101299.44;;;15.05
24586;BMP280;12743;52.262;6.172;2022-08-21T04:56:41;101270.88;;;15.11
24586;BMP280;12743;52.262;6.172;2022-08-21T04:59:12;101252.25;;;14.92
24586;BMP280;12743;52.262;6.172;2022-08-21T05:01:39;101302.34;;;15.32
24586;BMP280;12743;52.262;6.172;2022-08-21T05:04:08;101217.25;;;14.98
24586;BMP280;12743;52.262;6.172;2022-08-21T05:06:36;101307.59;;;15.63
24586;BMP280;12743;52.262;6.172;2022-08-21T05:09:04;101308.19;;;15.56
24586;BMP280;12743;52.262;6.172;2022-08-21T05:11:30;101289.34;;;15.42
24586;BMP280;12743;52.262;6.172;2022-08-21T05:13:56;101275.28;;;15.38
24586;BMP280;12743;52.262;6.172;2022-08-21T05:16:21;101258.47;;;15.30
24586;BMP280;12743;52.262;6.172;2022-08-21T05:18:46;101279.88;;;15.41
24586;BMP280;12743;52.262;6.172;2022-08-21T05:21:12;101317.88;;;15.49
24586;BMP280;12743;52.262;6.172;2022-08-21T05:23:37;101285.63;;;15.27
24586;BMP280;12743;52.262;6.172;2022-08-21T05:26:03;101308.75;;;15.15
24586;BMP280;12743;52.262;6.172;2022-08-21T05:28:31;101295.06;;;15.13
24586;BMP280;12743;52.262;6.172;2022-08-21T05:30:57;101269.72;;;14.96
24586;BMP280;12743;52.262;6.172;2022-08-21T05:33:28;101301.13;;;15.29
24586;BMP280;12743;52.262;6.172;2022-08-21T05:35:55;101327.84;;;15.55
24586;BMP280;12743;52.262;6.172;2022-08-21T05:38:21;101305.81;;;15.36
24586;BMP280;12743;52.262;6.172;2022-08-21T05:40:47;101291.41;;;15.33
24586;BMP280;12743;52.262;6.172;2022-08-21T05:43:12;101299.41;;;15.52
24586;BMP280;12743;52.262;6.172;2022-08-21T05:45:38;101277.06;;;15.34
24586;BMP280;12743;52.262;6.172;2022-08-21T05:48:08;101300.97;;;15.22
24586;BMP280;12743;52.262;6.172;2022-08-21T05:50:35;101231.41;;;15.06
24586;BMP280;12743;52.262;6.172;2022-08-21T05:53:05;101314.13;;;15.84
24586;BMP280;12743;52.262;6.172;2022-08-21T05:55:31;101278.63;;;15.70
24586;BMP280;12743;52.262;6.172;2022-08-21T05:57:56;101319.16;;;15.89
24586;BMP280;12743;52.262;6.172;2022-08-21T06:00:22;101265.69;;;15.49
24586;BMP280;12743;52.262;6.172;2022-08-21T06:02:49;101312.38;;;16.07
24586;BMP280;12743;52.262;6.172;2022-08-21T06:05:16;101311.38;;;16.15
24586;BMP280;12743;52.262;6.172;2022-08-21T06:07:42;101255.88;;;15.84
24586;BMP280;12743;52.262;6.172;2022-08-21T06:10:07;101277.94;;;16.11
24586;BMP280;12743;52.262;6.172;2022-08-21T06:12:33;101286.22;;;16.25
24586;BMP280;12743;52.262;6.172;2022-08-21T06:14:58;101286.75;;;16.15
24586;BMP280;12743;52.262;6.172;2022-08-21T06:17:23;101270.94;;;16.19
24586;BMP280;12743;52.262;6.172;2022-08-21T06:19:53;101243.69;;;15.99
24586;BMP280;12743;52.262;6.172;2022-08-21T06:22:19;101306.19;;;16.42
24586;BMP280;12743;52.262;6.172;2022-08-21T06:24:44;101208.13;;;15.81
24586;BMP280;12743;52.262;6.172;2022-08-21T06:27:10;101319.56;;;16.68
24586;BMP280;12743;52.262;6.172;2022-08-21T06:29:35;101318.88;;;16.71
24586;BMP280;12743;52.262;6.172;2022-08-21T06:32:01;101320.22;;;16.84
24586;BMP280;12743;52.262;6.172;2022-08-21T06:34:27;101320.00;;;16.92
24586;BMP280;12743;52.262;6.172;2022-08-21T06:36:53;101240.91;;;16.75
24586;BMP280;12743;52.262;6.172;2022-08-21T06:39:18;101257.81;;;16.90
24586;BMP280;12743;52.262;6.172;2022-08-21T06:41:44;101282.53;;;17.20
24586;BMP280;12743;52.262;6.172;2022-08-21T06:44:10;101282.38;;;17.10
24586;BMP280;12743;52.262;6.172;2022-08-21T06:46:35;101279.28;;;17.30
24586;BMP280;12743;52.262;6.172;2022-08-21T06:49:01;101277.59;;;17.19
24586;BMP280;12743;52.262;6.172;2022-08-21T06:51:27;101259.13;;;17.26
24586;BMP280;12743;52.262;6.172;2022-08-21T06:53:53;101308.16;;;17.61
24586;BMP280;12743;52.262;6.172;2022-08-21T06:56:19;101318.63;;;17.77
24586;BMP280;12743;52.262;6.172;2022-08-21T06:58:45;101289.31;;;17.70
24586;BMP280;12743;52.262;6.172;2022-08-21T07:01:10;101313.16;;;17.96
24586;BMP280;12743;52.262;6.172;2022-08-21T07:03:41;101281.16;;;17.85
24586;BMP280;12743;52.262;6.172;2022-08-21T07:06:08;101271.84;;;17.99
24586;BMP280;12743;52.262;6.172;2022-08-21T07:08:35;101312.41;;;18.29
24586;BMP280;12743;52.262;6.172;2022-08-21T07:11:03;101318.31;;;18.45
24586;BMP280;12743;52.262;6.172;2022-08-21T07:13:29;101202.75;;;17.65
24586;BMP280;12743;52.262;6.172;2022-08-21T07:15:54;101302.38;;;18.52
24586;BMP280;12743;52.262;6.172;2022-08-21T07:18:20;101285.78;;;18.65
24586;BMP280;12743;52.262;6.172;2022-08-21T07:20:46;101220.72;;;18.12
24586;BMP280;12743;52.262;6.172;2022-08-21T07:23:30;101306.06;;;18.80
24586;BMP280;12743;52.262;6.172;2022-08-21T07:25:57;101295.81;;;18.42
24586;BMP280;12743;52.262;6.172;2022-08-21T07:28:24;101289.63;;;18.68
24586;BMP280;12743;52.262;6.172;2022-08-21T07:30:52;101305.31;;;18.80
24586;BMP280;12743;52.262;6.172;2022-08-21T07:33:17;101309.38;;;18.67
24586;BMP280;12743;52.262;6.172;2022-08-21T07:35:43;101267.63;;;18.31
24586;BMP280;12743;52.262;6.172;2022-08-21T07:38:08;101296.22;;;18.81
24586;BMP280;12743;52.262;6.172;2022-08-21T07:40:34;101255.81;;;18.75
24586;BMP280;12743;52.262;6.172;2022-08-21T07:42:59;101233.31;;;18.62
24586;BMP280;12743;52.262;6.172;2022-08-21T07:45:25;101299.31;;;18.90
24586;BMP280;12743;52.262;6.172;2022-08-21T07:47:51;101203.78;;;18.31
24586;BMP280;12743;52.262;6.172;2022-08-21T07:50:17;101253.72;;;18.99
24586;BMP280;12743;52.262;6.172;2022-08-21T07:52:43;101270.13;;;19.04
24586;BMP280;12743;52.262;6.172;2022-08-21T07:55:11;101274.03;;;19.17
24586;BMP280;12743;52.262;6.172;2022-08-21T07:57:36;101302.09;;;19.76
24586;BMP280;12743;52.262;6.172;2022-08-21T08:00:05;101259.69;;;19.39
24586;BMP280;12743;52.262;6.172;2022-08-21T08:02:37;101298.63;;;19.65
24586;BMP280;12743;52.262;6.172;2022-08-21T08:05:07;101268.19;;;19.69
24586;BMP280;12743;52.262;6.172;2022-08-21T08:07:33;101296.69;;;19.62
24586;BMP280;12743;52.262;6.172;2022-08-21T08:10:00;101190.97;;;19.05
24586;BMP280;12743;52.262;6.172;2022-08-21T08:12:25;101258.66;;;19.68
24586;BMP280;12743;52.262;6.172;2022-08-21T08:14:59;101253.25;;;19.58
24586;BMP280;12743;52.262;6.172;2022-08-21T08:17:25;101291.91;;;20.06
24586;BMP280;12743;52.262;6.172;2022-08-21T08:19:51;101259.91;;;19.99
24586;BMP280;12743;52.262;6.172;2022-08-21T08:22:19;101292.34;;;20.29
24586;BMP280;12743;52.262;6.172;2022-08-21T08:24:45;101268.28;;;20.19
24586;BMP280;12743;52.262;6.172;2022-08-21T08:27:10;101277.41;;;20.11
24586;BMP280;12743;52.262;6.172;2022-08-21T08:29:36;101204.25;;;19.84
24586;BMP280;12743;52.262;6.172;2022-08-21T08:32:03;101284.69;;;20.35
24586;BMP280;12743;52.262;6.172;2022-08-21T08:34:29;101281.25;;;20.20
24586;BMP280;12743;52.262;6.172;2022-08-21T08:36:55;101280.53;;;20.37
24586;BMP280;12743;52.262;6.172;2022-08-21T08:39:23;101242.00;;;20.28
24586;BMP280;12743;52.262;6.172;2022-08-21T08:41:48;101262.59;;;20.59
24586;BMP280;12743;52.262;6.172;2022-08-21T08:44:16;101285.06;;;20.90
24586;BMP280;12743;52.262;6.172;2022-08-21T08:46:46;101266.00;;;20.84
24586;BMP280;12743;52.262;6.172;2022-08-21T08:51:48;101279.69;;;21.00
24586;BMP280;12743;52.262;6.172;2022-08-21T08:54:28;101269.03;;;20.93
24586;BMP280;12743;52.262;6.172;2022-08-21T08:56:59;101261.44;;;20.85
24586;BMP280;12743;52.262;6.172;2022-08-21T08:59:55;101238.53;;;20.91
24586;BMP280;12743;52.262;6.172;2022-08-21T09:02:22;101284.25;;;21.21
24586;BMP280;12743;52.262;6.172;2022-08-21T09:04:53;101253.63;;;21.36
24586;BMP280;12743;52.262;6.172;2022-08-21T09:07:35;101279.53;;;21.56
24586;BMP280;12743;52.262;6.172;2022-08-21T09:10:13;101285.63;;;21.57
24586;BMP280;12743;52.262;6.172;2022-08-21T09:12:53;101284.13;;;21.49
24586;BMP280;12743;52.262;6.172;2022-08-21T09:18:46;101280.22;;;22.73
24586;BMP280;12743;52.262;6.172;2022-08-21T09:26:44;101274.09;;;22.73
24586;BMP280;12743;52.262;6.172;2022-08-21T09:29:12;101189.78;;;22.14
24586;BMP280;12743;52.262;6.172;2022-08-21T09:31:38;101202.75;;;22.12
24586;BMP280;12743;52.262;6.172;2022-08-21T09:36:50;101265.78;;;23.61
24586;BMP280;12743;52.262;6.172;2022-08-21T09:39:32;101244.34;;;22.64
24586;BMP280;12743;52.262;6.172;2022-08-21T09:42:03;101234.41;;;22.98
24586;BMP280;12743;52.262;6.172;2022-08-21T09:44:38;101267.50;;;22.81
24586;BMP280;12743;52.262;6.172;2022-08-21T09:47:07;101267.03;;;22.49
24586;BMP280;12743;52.262;6.172;2022-08-21T09:49:38;101250.81;;;22.22
24586;BMP280;12743;52.262;6.172;2022-08-21T09:52:24;101191.06;;;21.92
24586;BMP280;12743;52.262;6.172;2022-08-21T09:54:54;101246.78;;;22.04
24586;BMP280;12743;52.262;6.172;2022-08-21T09:57:25;101254.91;;;22.41
24586;BMP280;12743;52.262;6.172;2022-08-21T10:00:32;101271.31;;;23.17
24586;BMP280;12743;52.262;6.172;2022-08-21T10:03:09;101278.34;;;23.04
24586;BMP280;12743;52.262;6.172;2022-08-21T10:05:35;101271.78;;;23.95
24586;BMP280;12743;52.262;6.172;2022-08-21T10:08:02;101256.75;;;24.01
24586;BMP280;12743;52.262;6.172;2022-08-21T10:10:31;101233.91;;;23.63
24586;BMP280;12743;52.262;6.172;2022-08-21T10:13:19;101276.44;;;23.65
24586;BMP280;12743;52.262;6.172;2022-08-21T10:16:23;101270.88;;;23.22
24586;BMP280;12743;52.262;6.172;2022-08-21T10:22:38;101216.06;;;23.27
24586;BMP280;12743;52.262;6.172;2022-08-21T10:27:59;101246.78;;;22.88
24586;BMP280;12743;52.262;6.172;2022-08-21T10:30:56;101256.34;;;23.20
24586;BMP280;12743;52.262;6.172;2022-08-21T10:36:16;101262.81;;;23.26
24586;BMP280;12743;52.262;6.172;2022-08-21T10:44:32;101233.22;;;23.03
24586;BMP280;12743;52.262;6.172;2022-08-21T10:47:09;101225.84;;;23.10
24586;BMP280;12743;52.262;6.172;2022-08-21T10:52:34;101257.72;;;23.01
24586;BMP280;12743;52.262;6.172;2022-08-21T10:55:20;101163.75;;;22.85
24586;BMP280;12743;52.262;6.172;2022-08-21T10:58:04;101242.88;;;23.53
24586;BMP280;12743;52.262;6.172;2022-08-21T11:00:38;101253.63;;;24.03
24586;BMP280;12743;52.262;6.172;2022-08-21T11:03:15;101242.38;;;23.88
24586;BMP280;12743;52.262;6.172;2022-08-21T11:05:54;101261.09;;;23.92
24586;BMP280;12743;52.262;6.172;2022-08-21T11:08:26;101248.19;;;24.30
24586;BMP280;12743;52.262;6.172;2022-08-21T11:10:57;101263.38;;;24.16
24586;BMP280;12743;52.262;6.172;2022-08-21T11:13:31;101262.22;;;24.60
24586;BMP280;12743;52.262;6.172;2022-08-21T11:19:02;101207.69;;;23.74
24586;BMP280;12743;52.262;6.172;2022-08-21T11:22:04;101269.28;;;24.51
24586;BMP280;12743;52.262;6.172;2022-08-21T11:25:03;101259.59;;;24.14
24586;BMP280;12743;52.262;6.172;2022-08-21T11:27:36;101214.59;;;24.22
24586;BMP280;12743;52.262;6.172;2022-08-21T11:30:05;101242.88;;;23.80
24586;BMP280;12743;52.262;6.172;2022-08-21T11:41:02;101252.06;;;23.82
24586;BMP280;12743;52.262;6.172;2022-08-21T11:43:41;101250.53;;;24.28
24586;BMP280;12743;52.262;6.172;2022-08-21T11:46:31;101230.13;;;24.53
24586;BMP280;12743;52.262;6.172;2022-08-21T11:52:18;101240.59;;;24.87
24586;BMP280;12743;52.262;6.172;2022-08-21T11:54:57;101209.03;;;24.71
24586;BMP280;12743;52.262;6.172;2022-08-21T12:02:21;101222.00;;;25.12
24586;BMP280;12743;52.262;6.172;2022-08-21T12:04:56;101240.75;;;25.15
24586;BMP280;12743;52.262;6.172;2022-08-21T12:07:34;101246.94;;;24.77
24586;BMP280;12743;52.262;6.172;2022-08-21T12:10:04;101209.66;;;24.59
24586;BMP280;12743;52.262;6.172;2022-08-21T12:12:35;101243.81;;;24.39
24586;BMP280;12743;52.262;6.172;2022-08-21T12:17:56;101195.88;;;23.95
24586;BMP280;12743;52.262;6.172;2022-08-21T12:20:56;101235.22;;;25.22
24586;BMP280;12743;52.262;6.172;2022-08-21T12:23:42;101203.94;;;24.77
24586;BMP280;12743;52.262;6.172;2022-08-21T12:26:33;101231.28;;;25.27
24586;BMP280;12743;52.262;6.172;2022-08-21T12:29:11;101246.75;;;25.23
24586;BMP280;12743;52.262;6.172;2022-08-21T12:31:49;101251.13;;;24.97
24586;BMP280;12743;52.262;6.172;2022-08-21T12:34:15;101253.41;;;24.79
24586;BMP280;12743;52.262;6.172;2022-08-21T12:36:49;101231.94;;;25.15
24586;BMP280;12743;52.262;6.172;2022-08-21T12:39:22;101155.69;;;24.54
24586;BMP280;12743;52.262;6.172;2022-08-21T12:42:41;101210.69;;;24.65
24586;BMP280;12743;52.262;6.172;2022-08-21T12:45:33;101205.09;;;24.37
24586;BMP280;12743;52.262;6.172;2022-08-21T12:50:45;101109.66;;;24.12
24586;BMP280;12743;52.262;6.172;2022-08-21T12:53:15;101254.88;;;25.55
24586;BMP280;12743;52.262;6.172;2022-08-21T12:55:47;101230.84;;;24.93
24586;BMP280;12743;52.262;6.172;2022-08-21T12:58:20;101223.63;;;24.90
24586;BMP280;12743;52.262;6.172;2022-08-21T13:00:58;101217.78;;;24.95
24586;BMP280;12743;52.262;6.172;2022-08-21T13:03:25;101208.72;;;24.85
24586;BMP280;12743;52.262;6.172;2022-08-21T13:05:51;101238.41;;;25.01
24586;BMP280;12743;52.262;6.172;2022-08-21T13:08:20;101204.41;;;25.59
24586;BMP280;12743;52.262;6.172;2022-08-21T13:10:47;101232.16;;;26.33
24586;BMP280;12743;52.262;6.172;2022-08-21T13:13:21;101208.63;;;25.60
24586;BMP280;12743;52.262;6.172;2022-08-21T13:15:47;101214.13;;;26.83
24586;BMP280;12743;52.262;6.172;2022-08-21T13:18:21;101196.97;;;26.52
24586;BMP280;12743;52.262;6.172;2022-08-21T13:20:48;101131.84;;;26.92
24586;BMP280;12743;52.262;6.172;2022-08-21T13:23:25;101246.59;;;26.39
24586;BMP280;12743;52.262;6.172;2022-08-21T13:25:55;101087.47;;;25.48
24586;BMP280;12743;52.262;6.172;2022-08-21T13:28:21;101166.13;;;25.35
24586;BMP280;12743;52.262;6.172;2022-08-21T13:30:50;101239.69;;;26.92
24586;BMP280;12743;52.262;6.172;2022-08-21T13:33:18;101237.44;;;27.03
24586;BMP280;12743;52.262;6.172;2022-08-21T13:36:14;101240.38;;;26.13
24586;BMP280;12743;52.262;6.172;2022-08-21T13:38:39;101234.34;;;25.77
24586;BMP280;12743;52.262;6.172;2022-08-21T13:41:22;101191.38;;;25.58
24586;BMP280;12743;52.262;6.172;2022-08-21T13:43:57;101236.78;;;25.72
24586;BMP280;12743;52.262;6.172;2022-08-21T13:46:26;101065.28;;;24.63
24586;BMP280;12743;52.262;6.172;2022-08-21T13:48:53;101205.84;;;25.64
24586;BMP280;12743;52.262;6.172;2022-08-21T13:51:19;101209.28;;;25.64
24586;BMP280;12743;52.262;6.172;2022-08-21T13:53:48;101205.06;;;25.79
24586;BMP280;12743;52.262;6.172;2022-08-21T13:56:27;101237.50;;;26.04
24586;BMP280;12743;52.262;6.172;2022-08-21T13:58:55;101130.34;;;25.06
24586;BMP280;12743;52.262;6.172;2022-08-21T14:01:27;101228.72;;;25.72
24586;BMP280;12743;52.262;6.172;2022-08-21T14:04:04;101219.78;;;25.91
24586;BMP280;12743;52.262;6.172;2022-08-21T14:06:36;101218.47;;;26.11
24586;BMP280;12743;52.262;6.172;2022-08-21T14:09:09;101182.19;;;25.23
24586;BMP280;12743;52.262;6.172;2022-08-21T14:11:36;101184.31;;;25.48
24586;BMP280;12743;52.262;6.172;2022-08-21T14:14:05;101208.13;;;25.65
24586;BMP280;12743;52.262;6.172;2022-08-21T14:16:52;101167.66;;;25.36
24586;BMP280;12743;52.262;6.172;2022-08-21T14:19:22;101212.72;;;25.65
24586;BMP280;12743;52.262;6.172;2022-08-21T14:21:48;101194.16;;;25.38
24586;BMP280;12743;52.262;6.172;2022-08-21T14:24:27;101195.69;;;25.55
24586;BMP280;12743;52.262;6.172;2022-08-21T14:27:02;101216.31;;;26.06
24586;BMP280;12743;52.262;6.172;2022-08-21T14:29:39;101219.72;;;26.23
24586;BMP280;12743;52.262;6.172;2022-08-21T14:32:28;101220.03;;;25.96
24586;BMP280;12743;52.262;6.172;2022-08-21T14:34:57;101207.78;;;25.63
24586;BMP280;12743;52.262;6.172;2022-08-21T14:37:23;101127.50;;;25.29
24586;BMP280;12743;52.262;6.172;2022-08-21T14:39:49;101198.19;;;25.46
24586;BMP280;12743;52.262;6.172;2022-08-21T14:42:18;101227.88;;;25.75
24586;BMP280;12743;52.262;6.172;2022-08-21T14:44:44;101209.53;;;25.54
24586;BMP280;12743;52.262;6.172;2022-08-21T14:47:09;101193.44;;;25.18
24586;BMP280;12743;52.262;6.172;2022-08-21T14:49:35;101200.66;;;25.05
24586;BMP280;12743;52.262;6.172;2022-08-21T14:52:07;101228.81;;;25.16
24586;BMP280;12743;52.262;6.172;2022-08-21T14:54:32;101212.56;;;24.88
24586;BMP280;12743;52.262;6.172;2022-08-21T14:57:01;101212.13;;;24.89
24586;BMP280;12743;52.262;6.172;2022-08-21T14:59:27;101232.53;;;24.87
24586;BMP280;12743;52.262;6.172;2022-08-21T15:01:53;101196.91;;;24.44
24586;BMP280;12743;52.262;6.172;2022-08-21T15:04:18;101137.50;;;24.22
24586;BMP280;12743;52.262;6.172;2022-08-21T15:06:44;101191.72;;;24.13
24586;BMP280;12743;52.262;6.172;2022-08-21T15:09:09;101086.34;;;23.44
24586;BMP280;12743;52.262;6.172;2022-08-21T15:11:34;101198.44;;;24.02